PWSweather.com
Personal Weather Stations
Station Observations
KILMORRI1
Goose Lake, Morris, IL 60450

Goose LakeMorris, IL 60450

Lat: 41.34, Lon: -88.3

Elevation: 523

Station Type:

www.gooselakeweather.com

High Low Average
Temperature -1.0°F-18.3°C -24.3°F-31.3°C -12.6°F-24.8°C
Dew Point -7.1°F-21.7°C -29.6°F-34.2°C -19.8°F-28.8°C
Winds 6.9 mph 11.1 kmh Calm Calm 2.0 mph S3.2 kmh S
Wind Gusts 8.1 mph13.0 kmh -- 3.0 mph4.8 kmh
Humidity 78% 57% 70%
Pressure 30.55 in1034.5 mb 30.42 in1030.1 mb -
Precipitation 0.00 in0.0 mm - -
Hour Temp Dew Point Humidity Winds Wind Gusts Pressure Precip Precip Rate Daily Precip Total
12:00 AM -16.6°F-27.0°C -23.7°F-30.9°C 69% 3.5 mph WSW5.6 kmh WSW 4.6 mph7.4 kmh 30.49 in1032.5 mb - 0.00 in0.0 mm 0.00 in0.0 mm
12:10 AM -16.7°F-27.1°C -23.6°F-30.9°C 70% 2.3 mph WSW3.7 kmh WSW 4.6 mph7.4 kmh 30.50 in1032.8 mb - 0.00 in0.0 mm 0.00 in0.0 mm
12:20 AM -16.5°F-26.9°C -23.4°F-30.8°C 70% 1.2 mph WSW1.9 kmh WSW 3.5 mph5.6 kmh 30.50 in1032.8 mb - 0.00 in0.0 mm 0.00 in0.0 mm
12:30 AM -17.0°F-27.2°C -23.8°F-31.0°C 70% 1.2 mph WSW1.9 kmh WSW 1.2 mph1.9 kmh 30.50 in1032.8 mb - 0.00 in0.0 mm 0.00 in0.0 mm
12:40 AM -17.6°F-27.6°C -24.4°F-31.3°C 70% 1.2 mph SW1.9 kmh SW 2.3 mph3.7 kmh 30.50 in1032.8 mb - 0.00 in0.0 mm 0.00 in0.0 mm
12:50 AM -18.1°F-27.8°C -24.7°F-31.5°C 71% 1.2 mph SW1.9 kmh SW 2.3 mph3.7 kmh 30.50 in1032.8 mb - 0.00 in0.0 mm 0.00 in0.0 mm
01:00 AM -18.1°F-27.8°C -24.4°F-31.3°C 72% 1.2 mph SW1.9 kmh SW 2.3 mph3.7 kmh 30.49 in1032.5 mb - 0.00 in0.0 mm 0.00 in0.0 mm
01:10 AM -18.6°F-28.1°C -24.9°F-31.6°C 72% 1.2 mph SW1.9 kmh SW 1.2 mph1.9 kmh 30.49 in1032.5 mb - 0.00 in0.0 mm 0.00 in0.0 mm
01:20 AM -19.2°F-28.4°C -25.4°F-31.9°C 72% Calm Calm 1.2 mph1.9 kmh 30.49 in1032.5 mb - 0.00 in0.0 mm 0.00 in0.0 mm
01:30 AM -20.6°F-29.2°C -26.6°F-32.6°C 73% Calm Calm 1.2 mph1.9 kmh 30.49 in1032.5 mb - 0.00 in0.0 mm 0.00 in0.0 mm
01:40 AM -20.8°F-29.3°C -26.5°F-32.5°C 74% Calm Calm -- 30.49 in1032.5 mb - 0.00 in0.0 mm 0.00 in0.0 mm
01:50 AM -21.7°F-29.8°C -27.4°F-33.0°C 74% Calm Calm -- 30.50 in1032.8 mb - 0.00 in0.0 mm 0.00 in0.0 mm
02:00 AM -22.2°F-30.1°C -27.6°F-33.1°C 75% Calm Calm 1.2 mph1.9 kmh 30.49 in1032.5 mb - 0.00 in0.0 mm 0.00 in0.0 mm
02:10 AM -22.4°F-30.2°C -27.8°F-33.2°C 75% Calm Calm 1.2 mph1.9 kmh 30.50 in1032.8 mb - 0.00 in0.0 mm 0.00 in0.0 mm
02:20 AM -22.6°F-30.3°C -28.0°F-33.3°C 75% 1.2 mph SW1.9 kmh SW 1.2 mph1.9 kmh 30.50 in1032.8 mb - 0.00 in0.0 mm 0.00 in0.0 mm
02:30 AM -22.8°F-30.4°C -28.2°F-33.4°C 75% 1.2 mph SW1.9 kmh SW 1.2 mph1.9 kmh 30.50 in1032.8 mb - 0.00 in0.0 mm 0.00 in0.0 mm
02:40 AM -22.9°F-30.5°C -28.3°F-33.5°C 75% 1.2 mph SW1.9 kmh SW 1.2 mph1.9 kmh 30.50 in1032.8 mb - 0.00 in0.0 mm 0.00 in0.0 mm
02:50 AM -23.2°F-30.7°C -28.6°F-33.7°C 75% Calm Calm 1.2 mph1.9 kmh 30.50 in1032.8 mb - 0.00 in0.0 mm 0.00 in0.0 mm
03:00 AM -23.1°F-30.6°C -28.5°F-33.6°C 75% Calm Calm -- 30.49 in1032.5 mb - 0.00 in0.0 mm 0.00 in0.0 mm
03:10 AM -23.6°F-30.9°C -29.0°F-33.9°C 75% Calm Calm 1.2 mph1.9 kmh 30.49 in1032.5 mb - 0.00 in0.0 mm 0.00 in0.0 mm
03:20 AM -23.3°F-30.7°C -28.7°F-33.7°C 75% Calm Calm 1.2 mph1.9 kmh 30.49 in1032.5 mb - 0.00 in0.0 mm 0.00 in0.0 mm
03:30 AM -23.7°F-30.9°C -29.1°F-33.9°C 75% 1.2 mph SW1.9 kmh SW 1.2 mph1.9 kmh 30.50 in1032.8 mb - 0.00 in0.0 mm 0.00 in0.0 mm
03:40 AM -23.9°F-31.1°C -29.0°F-33.9°C 76% 1.2 mph SW1.9 kmh SW 1.2 mph1.9 kmh 30.50 in1032.8 mb - 0.00 in0.0 mm 0.00 in0.0 mm
03:50 AM -24.3°F-31.3°C -29.6°F-34.2°C 75% 1.2 mph SW1.9 kmh SW 2.3 mph3.7 kmh 30.50 in1032.8 mb - 0.00 in0.0 mm 0.00 in0.0 mm
04:00 AM -24.0°F-31.1°C -29.1°F-33.9°C 76% 1.2 mph SW1.9 kmh SW 2.3 mph3.7 kmh 30.50 in1032.8 mb - 0.00 in0.0 mm 0.00 in0.0 mm
04:10 AM -23.7°F-30.9°C -29.0°F-33.9°C 75% 2.3 mph SW3.7 kmh SW 3.5 mph5.6 kmh 30.50 in1032.8 mb - 0.00 in0.0 mm 0.00 in0.0 mm
04:20 AM -22.9°F-30.5°C -28.0°F-33.3°C 76% 1.2 mph SW1.9 kmh SW 3.5 mph5.6 kmh 30.50 in1032.8 mb - 0.00 in0.0 mm 0.00 in0.0 mm
04:30 AM -23.2°F-30.7°C -28.6°F-33.7°C 75% 1.2 mph SW1.9 kmh SW 2.3 mph3.7 kmh 30.50 in1032.8 mb - 0.00 in0.0 mm 0.00 in0.0 mm
04:40 AM -23.5°F-30.8°C -28.9°F-33.8°C 75% 1.2 mph SW1.9 kmh SW 2.3 mph3.7 kmh 30.50 in1032.8 mb - 0.00 in0.0 mm 0.00 in0.0 mm
04:50 AM -23.5°F-30.8°C -28.9°F-33.8°C 75% 1.2 mph SW1.9 kmh SW 2.3 mph3.7 kmh 30.51 in1033.2 mb - 0.00 in0.0 mm 0.00 in0.0 mm
05:00 AM -23.5°F-30.8°C -28.9°F-33.8°C 75% Calm Calm 1.2 mph1.9 kmh 30.50 in1032.8 mb - 0.00 in0.0 mm 0.00 in0.0 mm
05:10 AM -23.7°F-30.9°C -29.0°F-33.9°C 75% Calm Calm 1.2 mph1.9 kmh 30.50 in1032.8 mb - 0.00 in0.0 mm 0.00 in0.0 mm
05:20 AM -23.9°F-31.1°C -29.0°F-33.9°C 76% 1.2 mph SW1.9 kmh SW 1.2 mph1.9 kmh 30.50 in1032.8 mb - 0.00 in0.0 mm 0.00 in0.0 mm
05:30 AM -24.3°F-31.3°C -29.6°F-34.2°C 75% 1.2 mph SW1.9 kmh SW 2.3 mph3.7 kmh 30.50 in1032.8 mb - 0.00 in0.0 mm 0.00 in0.0 mm
05:40 AM -24.2°F-31.2°C -29.6°F-34.2°C 75% 1.2 mph SW1.9 kmh SW 2.3 mph3.7 kmh 30.51 in1033.2 mb - 0.00 in0.0 mm 0.00 in0.0 mm
05:50 AM -24.2°F-31.2°C -29.6°F-34.2°C 75% 1.2 mph SW1.9 kmh SW 2.3 mph3.7 kmh 30.51 in1033.2 mb - 0.00 in0.0 mm 0.00 in0.0 mm
06:00 AM -24.2°F-31.2°C -29.6°F-34.2°C 75% 1.2 mph SW1.9 kmh SW 2.3 mph3.7 kmh 30.52 in1033.5 mb - 0.00 in0.0 mm 0.00 in0.0 mm
06:10 AM -24.3°F-31.3°C -29.6°F-34.2°C 75% 2.3 mph SW3.7 kmh SW 3.5 mph5.6 kmh 30.52 in1033.5 mb - 0.00 in0.0 mm 0.00 in0.0 mm
06:20 AM -24.1°F-31.2°C -29.4°F-34.1°C 75% 1.2 mph SW1.9 kmh SW 2.3 mph3.7 kmh 30.52 in1033.5 mb - 0.00 in0.0 mm 0.00 in0.0 mm
06:30 AM -23.8°F-31.0°C -28.9°F-33.8°C 76% 1.2 mph SW1.9 kmh SW 2.3 mph3.7 kmh 30.53 in1033.9 mb - 0.00 in0.0 mm 0.00 in0.0 mm
06:40 AM -23.8°F-31.0°C -28.9°F-33.8°C 76% 1.2 mph SSW1.9 kmh SSW 2.3 mph3.7 kmh 30.53 in1033.9 mb - 0.00 in0.0 mm 0.00 in0.0 mm
06:50 AM -23.7°F-30.9°C -28.8°F-33.8°C 76% 1.2 mph SSW1.9 kmh SSW 3.5 mph5.6 kmh 30.53 in1033.9 mb - 0.00 in0.0 mm 0.00 in0.0 mm
07:00 AM -23.4°F-30.8°C -28.8°F-33.8°C 75% 1.2 mph SSW1.9 kmh SSW 2.3 mph3.7 kmh 30.53 in1033.9 mb - 0.00 in0.0 mm 0.00 in0.0 mm
07:10 AM -23.4°F-30.8°C -28.8°F-33.8°C 75% 1.2 mph SW1.9 kmh SW 2.3 mph3.7 kmh 30.53 in1033.9 mb - 0.00 in0.0 mm 0.00 in0.0 mm
07:20 AM -23.4°F-30.8°C -28.8°F-33.8°C 75% 1.2 mph SSW1.9 kmh SSW 2.3 mph3.7 kmh 30.52 in1033.5 mb - 0.00 in0.0 mm 0.00 in0.0 mm
07:30 AM -23.4°F-30.8°C -28.8°F-33.8°C 75% 1.2 mph SSW1.9 kmh SSW 1.2 mph1.9 kmh 30.53 in1033.9 mb - 0.00 in0.0 mm 0.00 in0.0 mm
07:40 AM -19.9°F-28.8°C -25.1°F-31.7°C 76% 2.3 mph SW3.7 kmh SW 3.5 mph5.6 kmh 30.53 in1033.9 mb - 0.00 in0.0 mm 0.00 in0.0 mm
07:50 AM -19.6°F-28.7°C -24.8°F-31.6°C 76% 3.5 mph SW5.6 kmh SW 3.5 mph5.6 kmh 30.53 in1033.9 mb - 0.00 in0.0 mm 0.00 in0.0 mm
08:00 AM -17.2°F-27.3°C -22.5°F-30.3°C 76% 3.5 mph SW5.6 kmh SW 5.8 mph9.3 kmh 30.54 in1034.2 mb - 0.00 in0.0 mm 0.00 in0.0 mm
08:10 AM -15.8°F-26.6°C -21.4°F-29.7°C 75% 3.5 mph SW5.6 kmh SW 4.6 mph7.4 kmh 30.54 in1034.2 mb - 0.00 in0.0 mm 0.00 in0.0 mm
08:20 AM -14.6°F-25.9°C -20.5°F-29.2°C 74% 4.6 mph SW7.4 kmh SW 4.6 mph7.4 kmh 30.54 in1034.2 mb - 0.00 in0.0 mm 0.00 in0.0 mm
08:30 AM -13.7°F-25.4°C -19.8°F-28.8°C 73% 2.3 mph SW3.7 kmh SW 3.5 mph5.6 kmh 30.54 in1034.2 mb - 0.00 in0.0 mm 0.00 in0.0 mm
08:40 AM -12.9°F-24.9°C -19.7°F-28.7°C 71% 3.5 mph SW5.6 kmh SW 5.8 mph9.3 kmh 30.54 in1034.2 mb - 0.00 in0.0 mm 0.00 in0.0 mm
08:50 AM -12.2°F-24.6°C -19.2°F-28.4°C 70% 3.5 mph SW5.6 kmh SW 3.5 mph5.6 kmh 30.54 in1034.2 mb - 0.00 in0.0 mm 0.00 in0.0 mm
09:00 AM -11.5°F-24.2°C -19.1°F-28.4°C 68% 2.3 mph WSW3.7 kmh WSW 4.6 mph7.4 kmh 30.54 in1034.2 mb - 0.00 in0.0 mm 0.00 in0.0 mm
09:10 AM -10.8°F-23.8°C -18.5°F-28.1°C 68% 3.5 mph SW5.6 kmh SW 3.5 mph5.6 kmh 30.55 in1034.5 mb - 0.00 in0.0 mm 0.00 in0.0 mm
09:20 AM -10.4°F-23.6°C -18.3°F-27.9°C 67% 4.6 mph SW7.4 kmh SW 8.1 mph13.0 kmh 30.54 in1034.2 mb - 0.00 in0.0 mm 0.00 in0.0 mm
09:30 AM -9.8°F-23.2°C -18.1°F-27.8°C 66% 3.5 mph SW5.6 kmh SW 3.5 mph5.6 kmh 30.54 in1034.2 mb - 0.00 in0.0 mm 0.00 in0.0 mm
09:40 AM -9.5°F-23.1°C -17.7°F-27.6°C 66% 1.2 mph S1.9 kmh S 2.3 mph3.7 kmh 30.55 in1034.5 mb - 0.00 in0.0 mm 0.00 in0.0 mm
09:50 AM -8.7°F-22.6°C -17.0°F-27.2°C 66% 3.5 mph WSW5.6 kmh WSW 4.6 mph7.4 kmh 30.55 in1034.5 mb - 0.00 in0.0 mm 0.00 in0.0 mm
10:00 AM -8.7°F-22.6°C -17.3°F-27.4°C 65% 3.5 mph SW5.6 kmh SW 3.5 mph5.6 kmh 30.55 in1034.5 mb - 0.00 in0.0 mm 0.00 in0.0 mm
10:10 AM -8.1°F-22.3°C -17.0°F-27.2°C 64% 2.3 mph SSW3.7 kmh SSW 3.5 mph5.6 kmh 30.55 in1034.5 mb - 0.00 in0.0 mm 0.00 in0.0 mm
10:20 AM -7.5°F-21.9°C -16.5°F-26.9°C 64% 4.6 mph W7.4 kmh W 5.8 mph9.3 kmh 30.55 in1034.5 mb - 0.00 in0.0 mm 0.00 in0.0 mm
10:30 AM -7.2°F-21.8°C -16.2°F-26.8°C 64% 5.8 mph W9.3 kmh W 8.1 mph13.0 kmh 30.55 in1034.5 mb - 0.00 in0.0 mm 0.00 in0.0 mm
10:40 AM -6.9°F-21.6°C -15.9°F-26.6°C 64% 4.6 mph WSW7.4 kmh WSW 5.8 mph9.3 kmh 30.55 in1034.5 mb - 0.00 in0.0 mm 0.00 in0.0 mm
10:50 AM -6.6°F-21.4°C -15.6°F-26.4°C 64% 3.5 mph W5.6 kmh W 4.6 mph7.4 kmh 30.55 in1034.5 mb - 0.00 in0.0 mm 0.00 in0.0 mm
11:00 AM -5.5°F-20.8°C -14.6°F-25.9°C 64% 3.5 mph WNW5.6 kmh WNW 3.5 mph5.6 kmh 30.55 in1034.5 mb - 0.00 in0.0 mm 0.00 in0.0 mm
11:10 AM -5.6°F-20.9°C -15.3°F-26.3°C 62% 1.2 mph SW1.9 kmh SW 3.5 mph5.6 kmh 30.55 in1034.5 mb - 0.00 in0.0 mm 0.00 in0.0 mm
11:20 AM -4.8°F-20.4°C -14.8°F-26.0°C 61% 2.3 mph W3.7 kmh W 3.5 mph5.6 kmh 30.54 in1034.2 mb - 0.00 in0.0 mm 0.00 in0.0 mm
11:30 AM -4.1°F-20.1°C -14.5°F-25.8°C 60% 2.3 mph WSW3.7 kmh WSW 2.3 mph3.7 kmh 30.54 in1034.2 mb - 0.00 in0.0 mm 0.00 in0.0 mm
11:40 AM -3.8°F-19.9°C -14.6°F-25.9°C 59% 3.5 mph W5.6 kmh W 4.6 mph7.4 kmh 30.53 in1033.9 mb - 0.00 in0.0 mm 0.00 in0.0 mm
11:50 AM -3.8°F-19.9°C -15.2°F-26.2°C 57% 4.6 mph WSW7.4 kmh WSW 4.6 mph7.4 kmh 30.52 in1033.5 mb - 0.00 in0.0 mm 0.00 in0.0 mm
12:00 PM -3.5°F-19.7°C -14.3°F-25.7°C 59% 5.8 mph SSW9.3 kmh SSW 6.9 mph11.1 kmh 30.52 in1033.5 mb - 0.00 in0.0 mm 0.00 in0.0 mm
12:10 PM -4.3°F-20.2°C -14.7°F-25.9°C 60% 3.5 mph SW5.6 kmh SW 4.6 mph7.4 kmh 30.52 in1033.5 mb - 0.00 in0.0 mm 0.00 in0.0 mm
12:20 PM -3.5°F-19.7°C -13.3°F-25.2°C 62% 1.2 mph SSW1.9 kmh SSW 3.5 mph5.6 kmh 30.51 in1033.2 mb - 0.00 in0.0 mm 0.00 in0.0 mm
12:30 PM -3.4°F-19.7°C -13.2°F-25.1°C 62% 2.3 mph WSW3.7 kmh WSW 3.5 mph5.6 kmh 30.52 in1033.5 mb - 0.00 in0.0 mm 0.00 in0.0 mm
12:40 PM -2.5°F-19.2°C -13.0°F-25.0°C 60% 3.5 mph WSW5.6 kmh WSW 3.5 mph5.6 kmh 30.51 in1033.2 mb - 0.00 in0.0 mm 0.00 in0.0 mm
12:50 PM -2.6°F-19.2°C -13.4°F-25.2°C 59% 1.2 mph SSW1.9 kmh SSW 2.3 mph3.7 kmh 30.50 in1032.8 mb - 0.00 in0.0 mm 0.00 in0.0 mm
01:00 PM -1.6°F-18.7°C -12.1°F-24.5°C 60% 2.3 mph NW3.7 kmh NW 4.6 mph7.4 kmh 30.49 in1032.5 mb - 0.00 in0.0 mm 0.00 in0.0 mm
01:10 PM -2.1°F-18.9°C -13.3°F-25.2°C 58% 2.3 mph NW3.7 kmh NW 2.3 mph3.7 kmh 30.48 in1032.2 mb - 0.00 in0.0 mm 0.00 in0.0 mm
01:20 PM -1.7°F-18.7°C -12.6°F-24.8°C 59% 1.2 mph NNW1.9 kmh NNW 2.3 mph3.7 kmh 30.48 in1032.2 mb - 0.00 in0.0 mm 0.00 in0.0 mm
01:30 PM -1.6°F-18.7°C -12.1°F-24.5°C 60% 1.2 mph N1.9 kmh N 3.5 mph5.6 kmh 30.48 in1032.2 mb - 0.00 in0.0 mm 0.00 in0.0 mm
01:40 PM -2.7°F-19.3°C -13.5°F-25.3°C 59% 2.3 mph ENE3.7 kmh ENE 3.5 mph5.6 kmh 30.48 in1032.2 mb - 0.00 in0.0 mm 0.00 in0.0 mm
01:50 PM -2.7°F-19.3°C -13.2°F-25.1°C 60% 1.2 mph E1.9 kmh E 1.2 mph1.9 kmh 30.47 in1031.8 mb - 0.00 in0.0 mm 0.00 in0.0 mm
02:00 PM -2.3°F-19.1°C -12.8°F-24.9°C 60% 2.3 mph E3.7 kmh E 4.6 mph7.4 kmh 30.47 in1031.8 mb - 0.00 in0.0 mm 0.00 in0.0 mm
02:10 PM -2.0°F-18.9°C -12.2°F-24.6°C 61% 1.2 mph E1.9 kmh E 2.3 mph3.7 kmh 30.48 in1032.2 mb - 0.00 in0.0 mm 0.00 in0.0 mm
02:20 PM -1.9°F-18.8°C -12.4°F-24.7°C 60% 2.3 mph NE3.7 kmh NE 3.5 mph5.6 kmh 30.48 in1032.2 mb - 0.00 in0.0 mm 0.00 in0.0 mm
02:30 PM -1.6°F-18.7°C -11.8°F-24.3°C 61% 1.2 mph N1.9 kmh N 3.5 mph5.6 kmh 30.47 in1031.8 mb - 0.00 in0.0 mm 0.00 in0.0 mm
02:40 PM -1.6°F-18.7°C -12.1°F-24.5°C 60% Calm Calm 1.2 mph1.9 kmh 30.47 in1031.8 mb - 0.00 in0.0 mm 0.00 in0.0 mm
02:50 PM -1.7°F-18.7°C -12.2°F-24.6°C 60% 1.2 mph E1.9 kmh E 2.3 mph3.7 kmh 30.46 in1031.5 mb - 0.00 in0.0 mm 0.00 in0.0 mm
03:00 PM -1.6°F-18.7°C -11.8°F-24.3°C 61% 2.3 mph E3.7 kmh E 2.3 mph3.7 kmh 30.46 in1031.5 mb - 0.00 in0.0 mm 0.00 in0.0 mm
03:10 PM -1.2°F-18.4°C -11.1°F-23.9°C 62% 2.3 mph ENE3.7 kmh ENE 3.5 mph5.6 kmh 30.46 in1031.5 mb - 0.00 in0.0 mm 0.00 in0.0 mm
03:20 PM -1.0°F-18.3°C -9.9°F-23.3°C 65% 3.5 mph E5.6 kmh E 4.6 mph7.4 kmh 30.46 in1031.5 mb - 0.00 in0.0 mm 0.00 in0.0 mm
03:30 PM -1.2°F-18.4°C -9.5°F-23.1°C 67% 2.3 mph E3.7 kmh E 3.5 mph5.6 kmh 30.46 in1031.5 mb - 0.00 in0.0 mm 0.00 in0.0 mm
03:40 PM -1.1°F-18.4°C -8.9°F-22.7°C 69% 2.3 mph E3.7 kmh E 3.5 mph5.6 kmh 30.45 in1031.2 mb - 0.00 in0.0 mm 0.00 in0.0 mm
03:50 PM -1.2°F-18.4°C -8.3°F-22.4°C 71% 2.3 mph NE3.7 kmh NE 3.5 mph5.6 kmh 30.45 in1031.2 mb - 0.00 in0.0 mm 0.00 in0.0 mm
04:00 PM -1.4°F-18.6°C -8.2°F-22.3°C 72% 2.3 mph E3.7 kmh E 5.8 mph9.3 kmh 30.44 in1030.8 mb - 0.00 in0.0 mm 0.00 in0.0 mm
04:10 PM -1.4°F-18.6°C -8.0°F-22.2°C 73% 2.3 mph E3.7 kmh E 2.3 mph3.7 kmh 30.44 in1030.8 mb - 0.00 in0.0 mm 0.00 in0.0 mm
04:20 PM -1.1°F-18.4°C -7.7°F-22.1°C 73% 3.5 mph E5.6 kmh E 4.6 mph7.4 kmh 30.45 in1031.2 mb - 0.00 in0.0 mm 0.00 in0.0 mm
04:30 PM -1.0°F-18.3°C -7.3°F-21.8°C 74% 2.3 mph E3.7 kmh E 4.6 mph7.4 kmh 30.44 in1030.8 mb - 0.00 in0.0 mm 0.00 in0.0 mm
04:40 PM -1.1°F-18.4°C -7.1°F-21.7°C 75% 1.2 mph ESE1.9 kmh ESE 2.3 mph3.7 kmh 30.45 in1031.2 mb - 0.00 in0.0 mm 0.00 in0.0 mm
04:50 PM -1.3°F-18.5°C -7.3°F-21.8°C 75% 3.5 mph ESE5.6 kmh ESE 4.6 mph7.4 kmh 30.45 in1031.2 mb - 0.00 in0.0 mm 0.00 in0.0 mm
05:00 PM -1.4°F-18.6°C -7.1°F-21.7°C 76% 2.3 mph E3.7 kmh E 3.5 mph5.6 kmh 30.44 in1030.8 mb - 0.00 in0.0 mm 0.00 in0.0 mm
05:10 PM -1.5°F-18.6°C -7.2°F-21.8°C 76% 5.8 mph E9.3 kmh E 8.1 mph13.0 kmh 30.43 in1030.5 mb - 0.00 in0.0 mm 0.00 in0.0 mm
05:20 PM -1.6°F-18.7°C -7.1°F-21.7°C 77% 4.6 mph E7.4 kmh E 5.8 mph9.3 kmh 30.43 in1030.5 mb - 0.00 in0.0 mm 0.00 in0.0 mm
05:30 PM -1.7°F-18.7°C -7.1°F-21.7°C 77% 6.9 mph E11.1 kmh E 6.9 mph11.1 kmh 30.43 in1030.5 mb - 0.00 in0.0 mm 0.00 in0.0 mm
05:50 PM -1.9°F-18.8°C -7.1°F-21.7°C 78% 4.6 mph E7.4 kmh E 6.9 mph11.1 kmh 30.42 in1030.1 mb - 0.00 in0.0 mm 0.00 in0.0 mm
06:00 PM -1.8°F-18.8°C -7.0°F-21.7°C 78% 2.3 mph ESE3.7 kmh ESE 4.6 mph7.4 kmh 30.42 in1030.1 mb - 0.00 in0.0 mm 0.00 in0.0 mm
06:10 PM -1.8°F-18.8°C -7.0°F-21.7°C 78% 3.5 mph E5.6 kmh E 5.8 mph9.3 kmh 30.42 in1030.1 mb - 0.00 in0.0 mm 0.00 in0.0 mm
06:20 PM -1.6°F-18.7°C -6.8°F-21.6°C 78% 3.5 mph E5.6 kmh E 4.6 mph7.4 kmh 30.42 in1030.1 mb - 0.00 in0.0 mm 0.00 in0.0 mm
06:30 PM -1.7°F-18.7°C -6.9°F-21.6°C 78% 3.5 mph E5.6 kmh E 4.6 mph7.4 kmh 30.42 in1030.1 mb - 0.00 in0.0 mm 0.00 in0.0 mm
06:40 PM -1.6°F-18.7°C -6.8°F-21.6°C 78% 2.3 mph E3.7 kmh E 4.6 mph7.4 kmh 30.42 in1030.1 mb - 0.00 in0.0 mm 0.00 in0.0 mm
06:50 PM -1.5°F-18.6°C -6.4°F-21.3°C 79% 3.5 mph E5.6 kmh E 5.8 mph9.3 kmh 30.42 in1030.1 mb - 0.00 in0.0 mm 0.00 in0.0 mm
07:00 PM -1.4°F-18.6°C -6.3°F-21.3°C 79% 3.5 mph E5.6 kmh E 4.6 mph7.4 kmh 30.41 in1029.8 mb - 0.00 in0.0 mm 0.00 in0.0 mm
07:10 PM -1.3°F-18.5°C -6.2°F-21.2°C 79% 4.6 mph E7.4 kmh E 8.1 mph13.0 kmh 30.40 in1029.5 mb - 0.00 in0.0 mm 0.00 in0.0 mm
07:20 PM -1.2°F-18.4°C -6.2°F-21.2°C 79% 4.6 mph E7.4 kmh E 5.8 mph9.3 kmh 30.40 in1029.5 mb - 0.00 in0.0 mm 0.00 in0.0 mm
07:30 PM -1.2°F-18.4°C -6.2°F-21.2°C 79% 4.6 mph E7.4 kmh E 6.9 mph11.1 kmh 30.40 in1029.5 mb - 0.00 in0.0 mm 0.00 in0.0 mm
07:40 PM -1.1°F-18.4°C -6.0°F-21.1°C 79% 3.5 mph E5.6 kmh E 5.8 mph9.3 kmh 30.40 in1029.5 mb - 0.00 in0.0 mm 0.00 in0.0 mm
07:50 PM -1.0°F-18.3°C -5.9°F-21.1°C 79% 3.5 mph E5.6 kmh E 4.6 mph7.4 kmh 30.40 in1029.5 mb - 0.00 in0.0 mm 0.00 in0.0 mm
08:00 PM -0.8°F-18.2°C -5.7°F-20.9°C 79% 4.6 mph E7.4 kmh E 8.1 mph13.0 kmh 30.41 in1029.8 mb - 0.00 in0.0 mm 0.00 in0.0 mm
08:10 PM -0.8°F-18.2°C -5.5°F-20.8°C 80% 3.5 mph E5.6 kmh E 3.5 mph5.6 kmh 30.41 in1029.8 mb - 0.00 in0.0 mm 0.00 in0.0 mm
08:20 PM -0.7°F-18.2°C -5.4°F-20.8°C 80% 3.5 mph E5.6 kmh E 6.9 mph11.1 kmh 30.41 in1029.8 mb - 0.00 in0.0 mm 0.00 in0.0 mm
08:30 PM -0.6°F-18.1°C -5.3°F-20.7°C 80% 3.5 mph ENE5.6 kmh ENE 4.6 mph7.4 kmh 30.40 in1029.5 mb - 0.00 in0.0 mm 0.00 in0.0 mm
08:40 PM -0.5°F-18.1°C -5.2°F-20.7°C 80% 2.3 mph ENE3.7 kmh ENE 3.5 mph5.6 kmh 30.41 in1029.8 mb - 0.00 in0.0 mm 0.00 in0.0 mm
08:50 PM -0.5°F-18.1°C -5.2°F-20.7°C 80% 4.6 mph E7.4 kmh E 5.8 mph9.3 kmh 30.41 in1029.8 mb - 0.00 in0.0 mm 0.00 in0.0 mm
09:00 PM -0.4°F-18.0°C -5.1°F-20.6°C 80% 4.6 mph ESE7.4 kmh ESE 8.1 mph13.0 kmh 30.41 in1029.8 mb - 0.00 in0.0 mm 0.00 in0.0 mm
09:10 PM -0.3°F-17.9°C -5.0°F-20.6°C 80% 3.5 mph E5.6 kmh E 4.6 mph7.4 kmh 30.41 in1029.8 mb - 0.00 in0.0 mm 0.00 in0.0 mm
09:20 PM -0.2°F-17.9°C -4.9°F-20.5°C 80% 3.5 mph E5.6 kmh E 3.5 mph5.6 kmh 30.41 in1029.8 mb - 0.00 in0.0 mm 0.00 in0.0 mm
09:30 PM -0.1°F-17.8°C -4.8°F-20.4°C 80% 3.5 mph E5.6 kmh E 4.6 mph7.4 kmh 30.40 in1029.5 mb - 0.00 in0.0 mm 0.00 in0.0 mm
09:40 PM -0.1°F-17.8°C -4.8°F-20.4°C 80% 3.5 mph E5.6 kmh E 4.6 mph7.4 kmh 30.40 in1029.5 mb - 0.00 in0.0 mm 0.00 in0.0 mm
09:50 PM 0.0°F-17.8°C -4.7°F-20.4°C 80% 3.5 mph E5.6 kmh E 4.6 mph7.4 kmh 30.39 in1029.1 mb - 0.00 in0.0 mm 0.00 in0.0 mm
10:00 PM 0.1°F-17.7°C -4.6°F-20.3°C 80% 2.3 mph E3.7 kmh E 3.5 mph5.6 kmh 30.39 in1029.1 mb - 0.00 in0.0 mm 0.00 in0.0 mm
10:10 PM 0.3°F-17.6°C -4.4°F-20.2°C 80% 4.6 mph E7.4 kmh E 5.8 mph9.3 kmh 30.39 in1029.1 mb - 0.00 in0.0 mm 0.00 in0.0 mm
10:20 PM 0.4°F-17.6°C -4.0°F-20.0°C 81% 3.5 mph E5.6 kmh E 5.8 mph9.3 kmh 30.39 in1029.1 mb - 0.00 in0.0 mm 0.00 in0.0 mm
10:30 PM 0.5°F-17.5°C -4.2°F-20.1°C 80% 4.6 mph E7.4 kmh E 5.8 mph9.3 kmh 30.38 in1028.8 mb - 0.00 in0.0 mm 0.00 in0.0 mm
10:40 PM 0.7°F-17.4°C -3.8°F-19.9°C 81% 4.6 mph E7.4 kmh E 5.8 mph9.3 kmh 30.37 in1028.4 mb - 0.00 in0.0 mm 0.00 in0.0 mm
10:50 PM 0.9°F-17.3°C -3.8°F-19.9°C 80% 3.5 mph E5.6 kmh E 5.8 mph9.3 kmh 30.37 in1028.4 mb - 0.00 in0.0 mm 0.00 in0.0 mm
11:00 PM 1.1°F-17.2°C -3.4°F-19.7°C 81% 3.5 mph E5.6 kmh E 3.5 mph5.6 kmh 30.37 in1028.4 mb - 0.00 in0.0 mm 0.00 in0.0 mm
11:10 PM 1.2°F-17.1°C -3.3°F-19.6°C 81% Calm Calm -- 30.37 in1028.4 mb - 0.00 in0.0 mm 0.00 in0.0 mm
11:20 PM 1.5°F-16.9°C -3.0°F-19.4°C 81% Calm Calm -- 30.36 in1028.1 mb - 0.00 in0.0 mm 0.00 in0.0 mm
11:30 PM 1.7°F-16.8°C -2.8°F-19.3°C 81% 4.6 mph E7.4 kmh E 6.9 mph11.1 kmh 30.36 in1028.1 mb - 0.00 in0.0 mm 0.00 in0.0 mm
11:40 PM 1.9°F-16.7°C -2.6°F-19.2°C 81% 5.8 mph E9.3 kmh E 6.9 mph11.1 kmh 30.35 in1027.8 mb - 0.00 in0.0 mm 0.00 in0.0 mm
11:50 PM 2.0°F-16.7°C -2.5°F-19.2°C 81% 4.6 mph E7.4 kmh E 6.9 mph11.1 kmh 30.36 in1028.1 mb - 0.00 in0.0 mm 0.00 in0.0 mm